Terminal Aerodrome Forecast
Issued by NWS

Home | Current Version | Previous Version | Text Only | Print | Product List | Glossary On
Versions: 1 2 3 4 5 6 7 8 9 10 11 12 13 14 15 16 17 18 19 20
000
FTUS45 KBYZ 271738
TAFLVM
TAF
KLVM 271738Z 2718/2818 26015G25KT P6SM BKN080 BKN150
     FM272100 32015G30KT 4SM -TSRA SCT080CB BKN150
     FM280000 30014KT P6SM VCTS SCT100CB BKN150
     FM280300 24008KT P6SM BKN070 OVC100
     FM281500 30012KT P6SM VCTS SCT080CB SCT150=

USA.gov is the U.S. government's official web portal to all federal, state and local government web resources and services.